sensor_id;sensor_type;location;lat;lon;timestamp;pressure;altitude;pressure_sealevel;temperature;humidity
8894;BME280;4483;48.622;9.230;2023-03-13T00:00:46;97462.91;;;5.29;95.97
8894;BME280;4483;48.622;9.230;2023-03-13T00:03:13;97456.97;;;5.29;96.64
8894;BME280;4483;48.622;9.230;2023-03-13T00:05:40;97452.69;;;5.29;96.71
8894;BME280;4483;48.622;9.230;2023-03-13T00:08:08;97452.69;;;5.29;96.91
8894;BME280;4483;48.622;9.230;2023-03-13T00:10:35;97454.41;;;5.29;97.02
8894;BME280;4483;48.622;9.230;2023-03-13T00:13:02;97444.25;;;5.27;96.45
8894;BME280;4483;48.622;9.230;2023-03-13T00:15:29;97441.69;;;5.27;97.17
8894;BME280;4483;48.622;9.230;2023-03-13T00:17:55;97440.94;;;5.24;96.50
8894;BME280;4483;48.622;9.230;2023-03-13T00:20:22;97434.16;;;5.21;97.22
8894;BME280;4483;48.622;9.230;2023-03-13T00:22:49;97437.69;;;5.17;96.90
8894;BME280;4483;48.622;9.230;2023-03-13T00:25:17;97436.00;;;5.16;97.04
8894;BME280;4483;48.622;9.230;2023-03-13T00:27:44;97436.88;;;5.15;97.60
8894;BME280;4483;48.622;9.230;2023-03-13T00:30:11;97446.22;;;5.16;97.39
8894;BME280;4483;48.622;9.230;2023-03-13T00:32:40;97445.34;;;5.17;97.98
8894;BME280;4483;48.622;9.230;2023-03-13T00:35:07;97442.69;;;5.20;97.99
8894;BME280;4483;48.622;9.230;2023-03-13T00:37:34;97442.63;;;5.23;98.04
8894;BME280;4483;48.622;9.230;2023-03-13T00:40:00;97442.59;;;5.25;98.53
8894;BME280;4483;48.622;9.230;2023-03-13T00:42:30;97450.16;;;5.28;98.20
8894;BME280;4483;48.622;9.230;2023-03-13T00:44:56;97446.75;;;5.29;98.58
8894;BME280;4483;48.622;9.230;2023-03-13T00:47:24;97445.84;;;5.30;98.53
8894;BME280;4483;48.622;9.230;2023-03-13T00:49:50;97439.88;;;5.31;98.50
8894;BME280;4483;48.622;9.230;2023-03-13T00:52:17;97440.69;;;5.31;98.49
8894;BME280;4483;48.622;9.230;2023-03-13T00:54:44;97440.69;;;5.33;98.62
8894;BME280;4483;48.622;9.230;2023-03-13T00:57:11;97437.25;;;5.34;98.90
8894;BME280;4483;48.622;9.230;2023-03-13T00:59:39;97426.97;;;5.35;98.96
8894;BME280;4483;48.622;9.230;2023-03-13T01:02:05;97424.44;;;5.35;98.89
8894;BME280;4483;48.622;9.230;2023-03-13T01:04:32;97422.72;;;5.36;98.87
8894;BME280;4483;48.622;9.230;2023-03-13T01:06:59;97419.28;;;5.37;99.53
8894;BME280;4483;48.622;9.230;2023-03-13T01:09:25;97411.59;;;5.37;99.44
8894;BME280;4483;48.622;9.230;2023-03-13T01:11:52;97409.06;;;5.37;99.27
8894;BME280;4483;48.622;9.230;2023-03-13T01:14:19;97403.94;;;5.37;99.34
8894;BME280;4483;48.622;9.230;2023-03-13T01:16:47;97405.63;;;5.38;98.99
8894;BME280;4483;48.622;9.230;2023-03-13T01:19:16;97389.50;;;5.36;99.34
8894;BME280;4483;48.622;9.230;2023-03-13T01:21:44;97389.41;;;5.39;99.57
8894;BME280;4483;48.622;9.230;2023-03-13T01:24:11;97384.31;;;5.39;99.19
8894;BME280;4483;48.622;9.230;2023-03-13T01:26:37;97380.09;;;5.38;99.77
8894;BME280;4483;48.622;9.230;2023-03-13T01:29:04;97378.41;;;5.37;100.00
8894;BME280;4483;48.622;9.230;2023-03-13T01:31:32;97371.63;;;5.36;99.51
8894;BME280;4483;48.622;9.230;2023-03-13T01:34:02;97366.53;;;5.36;100.00
8894;BME280;4483;48.622;9.230;2023-03-13T01:36:29;97371.53;;;5.39;100.00
8894;BME280;4483;48.622;9.230;2023-03-13T01:38:58;97369.78;;;5.41;99.84
8894;BME280;4483;48.622;9.230;2023-03-13T01:41:26;97364.66;;;5.41;100.00
8894;BME280;4483;48.622;9.230;2023-03-13T01:43:53;97356.94;;;5.44;100.00
8894;BME280;4483;48.622;9.230;2023-03-13T01:46:21;97345.81;;;5.45;100.00
8894;BME280;4483;48.622;9.230;2023-03-13T01:48:51;97348.34;;;5.46;100.00
8894;BME280;4483;48.622;9.230;2023-03-13T01:51:24;97336.41;;;5.47;100.00
8894;BME280;4483;48.622;9.230;2023-03-13T01:53:56;97333.00;;;5.46;100.00
8894;BME280;4483;48.622;9.230;2023-03-13T01:56:30;97324.47;;;5.47;100.00
8894;BME280;4483;48.622;9.230;2023-03-13T01:58:59;97328.69;;;5.48;100.00
8894;BME280;4483;48.622;9.230;2023-03-13T02:01:26;97316.75;;;5.49;100.00
8894;BME280;4483;48.622;9.230;2023-03-13T02:03:55;97310.81;;;5.48;100.00
8894;BME280;4483;48.622;9.230;2023-03-13T02:06:27;97301.44;;;5.49;100.00
8894;BME280;4483;48.622;9.230;2023-03-13T02:08:58;97291.25;;;5.47;100.00
8894;BME280;4483;48.622;9.230;2023-03-13T02:11:34;97296.41;;;5.46;100.00
8894;BME280;4483;48.622;9.230;2023-03-13T02:14:03;97298.88;;;5.49;100.00
8894;BME280;4483;48.622;9.230;2023-03-13T02:16:32;97293.72;;;5.50;100.00
8894;BME280;4483;48.622;9.230;2023-03-13T02:19:00;97292.81;;;5.53;100.00
8894;BME280;4483;48.622;9.230;2023-03-13T02:21:39;97291.91;;;5.54;100.00
8894;BME280;4483;48.622;9.230;2023-03-13T02:24:12;97280.94;;;5.50;100.00
8894;BME280;4483;48.622;9.230;2023-03-13T02:26:45;97294.56;;;5.51;100.00
8894;BME280;4483;48.622;9.230;2023-03-13T02:29:12;97291.13;;;5.52;100.00
8894;BME280;4483;48.622;9.230;2023-03-13T02:31:44;97281.75;;;5.52;100.00
8894;BME280;4483;48.622;9.230;2023-03-13T02:34:14;97283.44;;;5.52;100.00
8894;BME280;4483;48.622;9.230;2023-03-13T02:36:43;97278.38;;;5.50;100.00
8894;BME280;4483;48.622;9.230;2023-03-13T02:39:11;97273.22;;;5.52;100.00
8894;BME280;4483;48.622;9.230;2023-03-13T02:41:42;97277.44;;;5.54;100.00
8894;BME280;4483;48.622;9.230;2023-03-13T02:44:11;97262.88;;;5.56;100.00
8894;BME280;4483;48.622;9.230;2023-03-13T02:46:45;97261.19;;;5.55;100.00
8894;BME280;4483;48.622;9.230;2023-03-13T02:49:23;97253.47;;;5.57;100.00
8894;BME280;4483;48.622;9.230;2023-03-13T02:51:51;97248.38;;;5.57;100.00
8894;BME280;4483;48.622;9.230;2023-03-13T02:54:21;97247.47;;;5.59;100.00
8894;BME280;4483;48.622;9.230;2023-03-13T02:56:51;97236.38;;;5.59;100.00
8894;BME280;4483;48.622;9.230;2023-03-13T02:59:21;97223.63;;;5.59;100.00
8894;BME280;4483;48.622;9.230;2023-03-13T03:01:48;97225.25;;;5.61;100.00
8894;BME280;4483;48.622;9.230;2023-03-13T03:04:17;97229.56;;;5.59;100.00
8894;BME280;4483;48.622;9.230;2023-03-13T03:06:44;97221.78;;;5.64;100.00
8894;BME280;4483;48.622;9.230;2023-03-13T03:09:11;97226.00;;;5.65;100.00
8894;BME280;4483;48.622;9.230;2023-03-13T03:11:38;97217.47;;;5.66;100.00
8894;BME280;4483;48.622;9.230;2023-03-13T03:14:05;97211.50;;;5.65;100.00
8894;BME280;4483;48.622;9.230;2023-03-13T03:16:33;97202.94;;;5.66;100.00
8894;BME280;4483;48.622;9.230;2023-03-13T03:19:00;97204.56;;;5.69;100.00
8894;BME280;4483;48.622;9.230;2023-03-13T03:21:27;97202.66;;;5.75;100.00
8894;BME280;4483;48.622;9.230;2023-03-13T03:23:54;97198.38;;;5.76;100.00
8894;BME280;4483;48.622;9.230;2023-03-13T03:26:21;97188.16;;;5.76;100.00
8894;BME280;4483;48.622;9.230;2023-03-13T03:28:47;97176.16;;;5.78;100.00
8894;BME280;4483;48.622;9.230;2023-03-13T03:31:14;97178.66;;;5.79;100.00
8894;BME280;4483;48.622;9.230;2023-03-13T03:33:43;97182.84;;;5.82;100.00
8894;BME280;4483;48.622;9.230;2023-03-13T03:36:11;97181.84;;;5.87;100.00
8894;BME280;4483;48.622;9.230;2023-03-13T03:38:39;97177.56;;;5.88;100.00
8894;BME280;4483;48.622;9.230;2023-03-13T03:41:06;97174.13;;;5.89;100.00
8894;BME280;4483;48.622;9.230;2023-03-13T03:43:34;97180.81;;;5.93;100.00
8894;BME280;4483;48.622;9.230;2023-03-13T03:46:01;97181.75;;;5.90;100.00
8894;BME280;4483;48.622;9.230;2023-03-13T03:48:28;97178.41;;;5.88;100.00
8894;BME280;4483;48.622;9.230;2023-03-13T03:50:56;97185.16;;;5.91;100.00
8894;BME280;4483;48.622;9.230;2023-03-13T03:53:23;97186.13;;;5.87;100.00
8894;BME280;4483;48.622;9.230;2023-03-13T03:55:50;97172.44;;;5.88;100.00
8894;BME280;4483;48.622;9.230;2023-03-13T03:58:17;97179.25;;;5.89;100.00
8894;BME280;4483;48.622;9.230;2023-03-13T04:00:43;97169.03;;;5.89;100.00
8894;BME280;4483;48.622;9.230;2023-03-13T04:03:10;97169.88;;;5.89;100.00
8894;BME280;4483;48.622;9.230;2023-03-13T04:05:37;97170.69;;;5.90;100.00
8894;BME280;4483;48.622;9.230;2023-03-13T04:08:06;97176.69;;;5.89;100.00
8894;BME280;4483;48.622;9.230;2023-03-13T04:10:33;97173.97;;;5.93;100.00
8894;BME280;4483;48.622;9.230;2023-03-13T04:12:59;97176.44;;;5.96;100.00
8894;BME280;4483;48.622;9.230;2023-03-13T04:15:26;97171.16;;;6.01;100.00
8894;BME280;4483;48.622;9.230;2023-03-13T04:17:53;97175.19;;;6.08;100.00
8894;BME280;4483;48.622;9.230;2023-03-13T04:20:19;97182.56;;;6.17;100.00
8894;BME280;4483;48.622;9.230;2023-03-13T04:22:46;97171.13;;;6.27;100.00
8894;BME280;4483;48.622;9.230;2023-03-13T04:25:15;97159.47;;;6.43;100.00
8894;BME280;4483;48.622;9.230;2023-03-13T04:27:41;97165.03;;;6.54;100.00
8894;BME280;4483;48.622;9.230;2023-03-13T04:30:09;97161.22;;;6.66;100.00
8894;BME280;4483;48.622;9.230;2023-03-13T04:32:36;97147.53;;;6.90;100.00
8894;BME280;4483;48.622;9.230;2023-03-13T04:35:03;97140.44;;;7.20;100.00
8894;BME280;4483;48.622;9.230;2023-03-13T04:37:30;97140.44;;;7.41;100.00
8894;BME280;4483;48.622;9.230;2023-03-13T04:39:57;97142.06;;;7.64;100.00
8894;BME280;4483;48.622;9.230;2023-03-13T04:42:25;97135.25;;;7.84;100.00
8894;BME280;4483;48.622;9.230;2023-03-13T04:44:51;97129.56;;;7.98;100.00
8894;BME280;4483;48.622;9.230;2023-03-13T04:47:18;97131.59;;;8.10;100.00
8894;BME280;4483;48.622;9.230;2023-03-13T04:49:45;97139.56;;;8.24;100.00
8894;BME280;4483;48.622;9.230;2023-03-13T04:52:11;97124.81;;;8.49;100.00
8894;BME280;4483;48.622;9.230;2023-03-13T04:54:38;97128.72;;;8.76;100.00
8894;BME280;4483;48.622;9.230;2023-03-13T04:57:05;97123.19;;;9.04;100.00
8894;BME280;4483;48.622;9.230;2023-03-13T04:59:33;97120.28;;;9.29;100.00
8894;BME280;4483;48.622;9.230;2023-03-13T05:01:59;97132.00;;;9.53;100.00
8894;BME280;4483;48.622;9.230;2023-03-13T05:04:26;97126.81;;;9.71;100.00
8894;BME280;4483;48.622;9.230;2023-03-13T05:06:52;97116.63;;;9.87;100.00
8894;BME280;4483;48.622;9.230;2023-03-13T05:09:19;97115.03;;;10.01;100.00
8894;BME280;4483;48.622;9.230;2023-03-13T05:11:46;97115.28;;;10.14;100.00
8894;BME280;4483;48.622;9.230;2023-03-13T05:14:12;97114.66;;;10.26;100.00
8894;BME280;4483;48.622;9.230;2023-03-13T05:16:40;97106.63;;;10.32;100.00
8894;BME280;4483;48.622;9.230;2023-03-13T05:19:07;97102.91;;;10.38;100.00
8894;BME280;4483;48.622;9.230;2023-03-13T05:21:34;97112.94;;;10.42;100.00
8894;BME280;4483;48.622;9.230;2023-03-13T05:24:00;97122.34;;;10.43;100.00
8894;BME280;4483;48.622;9.230;2023-03-13T05:26:27;97127.34;;;10.46;100.00
8894;BME280;4483;48.622;9.230;2023-03-13T05:28:53;97110.06;;;10.48;100.00
8894;BME280;4483;48.622;9.230;2023-03-13T05:31:20;97113.22;;;10.53;100.00
8894;BME280;4483;48.622;9.230;2023-03-13T05:33:49;97118.25;;;10.56;100.00
8894;BME280;4483;48.622;9.230;2023-03-13T05:36:15;97113.75;;;10.60;100.00
8894;BME280;4483;48.622;9.230;2023-03-13T05:38:42;97124.72;;;10.63;99.71
8894;BME280;4483;48.622;9.230;2023-03-13T05:41:08;97119.28;;;10.69;98.92
8894;BME280;4483;48.622;9.230;2023-03-13T05:43:35;97112.25;;;10.71;98.87
8894;BME280;4483;48.622;9.230;2023-03-13T05:46:02;97116.53;;;10.72;99.04
8894;BME280;4483;48.622;9.230;2023-03-13T05:48:28;97107.47;;;10.81;97.30
8894;BME280;4483;48.622;9.230;2023-03-13T05:50:56;97114.72;;;10.90;96.15
8894;BME280;4483;48.622;9.230;2023-03-13T05:53:23;97112.78;;;10.93;96.00
8894;BME280;4483;48.622;9.230;2023-03-13T05:55:50;97126.69;;;10.91;95.85
8894;BME280;4483;48.622;9.230;2023-03-13T05:58:16;97118.69;;;10.95;95.43
8894;BME280;4483;48.622;9.230;2023-03-13T06:00:43;97118.56;;;10.98;95.29
8894;BME280;4483;48.622;9.230;2023-03-13T06:03:09;97103.91;;;10.99;95.20
8894;BME280;4483;48.622;9.230;2023-03-13T06:05:36;97095.94;;;11.03;94.15
8894;BME280;4483;48.622;9.230;2023-03-13T06:08:04;97093.94;;;11.08;94.12
8894;BME280;4483;48.622;9.230;2023-03-13T06:10:31;97091.03;;;11.14;92.98
8894;BME280;4483;48.622;9.230;2023-03-13T06:12:58;97084.84;;;11.17;92.84
8894;BME280;4483;48.622;9.230;2023-03-13T06:15:25;97094.75;;;11.25;92.25
8894;BME280;4483;48.622;9.230;2023-03-13T06:17:52;97091.00;;;11.30;92.13
8894;BME280;4483;48.622;9.230;2023-03-13T06:20:19;97083.78;;;11.37;91.00
8894;BME280;4483;48.622;9.230;2023-03-13T06:22:46;97089.69;;;11.39;91.66
8894;BME280;4483;48.622;9.230;2023-03-13T06:25:14;97090.81;;;11.49;90.72
8894;BME280;4483;48.622;9.230;2023-03-13T06:27:42;97103.09;;;11.59;90.09
8894;BME280;4483;48.622;9.230;2023-03-13T06:30:10;97087.97;;;11.69;89.83
8894;BME280;4483;48.622;9.230;2023-03-13T06:32:36;97099.78;;;11.73;89.79
8894;BME280;4483;48.622;9.230;2023-03-13T06:35:04;97110.53;;;11.81;89.43
8894;BME280;4483;48.622;9.230;2023-03-13T06:37:31;97113.38;;;11.90;89.20
8894;BME280;4483;48.622;9.230;2023-03-13T06:39:58;97103.38;;;12.00;88.66
8894;BME280;4483;48.622;9.230;2023-03-13T06:42:27;97094.94;;;12.12;88.47
8894;BME280;4483;48.622;9.230;2023-03-13T06:44:53;97084.44;;;12.29;87.76
8894;BME280;4483;48.622;9.230;2023-03-13T06:47:20;97093.41;;;12.38;87.04
8894;BME280;4483;48.622;9.230;2023-03-13T06:49:47;97090.38;;;12.45;86.89
8894;BME280;4483;48.622;9.230;2023-03-13T06:52:14;97088.59;;;12.46;87.38
8894;BME280;4483;48.622;9.230;2023-03-13T06:54:41;97071.16;;;12.49;87.36
8894;BME280;4483;48.622;9.230;2023-03-13T06:57:08;97080.28;;;12.55;87.50
8894;BME280;4483;48.622;9.230;2023-03-13T06:59:36;97062.28;;;12.67;87.54
8894;BME280;4483;48.622;9.230;2023-03-13T07:02:03;97063.97;;;12.68;87.49
8894;BME280;4483;48.622;9.230;2023-03-13T07:04:30;97062.28;;;12.81;86.73
8894;BME280;4483;48.622;9.230;2023-03-13T07:06:57;97065.84;;;12.93;86.58
8894;BME280;4483;48.622;9.230;2023-03-13T07:09:24;97076.84;;;12.96;86.78
8894;BME280;4483;48.622;9.230;2023-03-13T07:11:50;97077.03;;;12.93;86.62
8894;BME280;4483;48.622;9.230;2023-03-13T07:14:17;97075.19;;;12.95;86.69
8894;BME280;4483;48.622;9.230;2023-03-13T07:16:45;97095.88;;;12.95;86.91
8894;BME280;4483;48.622;9.230;2023-03-13T07:19:12;97092.38;;;12.96;87.55
8894;BME280;4483;48.622;9.230;2023-03-13T07:21:39;97097.91;;;12.90;87.08
8894;BME280;4483;48.622;9.230;2023-03-13T07:24:06;97108.06;;;12.93;87.80
8894;BME280;4483;48.622;9.230;2023-03-13T07:26:33;97096.69;;;12.96;88.08
8894;BME280;4483;48.622;9.230;2023-03-13T07:28:59;97098.34;;;12.97;88.32
8894;BME280;4483;48.622;9.230;2023-03-13T07:31:27;97102.34;;;13.02;88.49
8894;BME280;4483;48.622;9.230;2023-03-13T07:33:59;97084.94;;;13.19;88.18
8894;BME280;4483;48.622;9.230;2023-03-13T07:36:26;97086.94;;;13.28;87.88
8894;BME280;4483;48.622;9.230;2023-03-13T07:38:52;97092.47;;;13.36;87.36
8894;BME280;4483;48.622;9.230;2023-03-13T07:41:19;97096.34;;;13.43;87.66
8894;BME280;4483;48.622;9.230;2023-03-13T07:43:46;97081.25;;;13.49;87.49
8894;BME280;4483;48.622;9.230;2023-03-13T07:46:15;97086.03;;;13.55;87.65
8894;BME280;4483;48.622;9.230;2023-03-13T07:48:44;97076.75;;;13.65;86.69
8894;BME280;4483;48.622;9.230;2023-03-13T07:51:14;97095.41;;;13.70;86.83
8894;BME280;4483;48.622;9.230;2023-03-13T07:53:41;97093.34;;;13.75;86.38
8894;BME280;4483;48.622;9.230;2023-03-13T07:56:10;97100.91;;;13.78;85.49
8894;BME280;4483;48.622;9.230;2023-03-13T07:58:39;97087.88;;;13.80;85.93
8894;BME280;4483;48.622;9.230;2023-03-13T08:01:09;97091.31;;;13.80;86.11
8894;BME280;4483;48.622;9.230;2023-03-13T08:03:37;97069.75;;;13.80;86.06
8894;BME280;4483;48.622;9.230;2023-03-13T08:06:07;97061.78;;;13.83;85.92
8894;BME280;4483;48.622;9.230;2023-03-13T08:08:37;97085.53;;;13.89;85.91
8894;BME280;4483;48.622;9.230;2023-03-13T08:11:05;97077.56;;;14.05;85.44
8894;BME280;4483;48.622;9.230;2023-03-13T08:13:33;97070.41;;;14.08;85.37
8894;BME280;4483;48.622;9.230;2023-03-13T08:16:02;97074.78;;;14.08;85.09
8894;BME280;4483;48.622;9.230;2023-03-13T08:18:29;97061.22;;;14.17;85.21
8894;BME280;4483;48.622;9.230;2023-03-13T08:21:00;97070.03;;;14.27;84.16
8894;BME280;4483;48.622;9.230;2023-03-13T08:23:28;97059.38;;;14.32;84.20
8894;BME280;4483;48.622;9.230;2023-03-13T08:26:00;97037.19;;;14.40;83.32
8894;BME280;4483;48.622;9.230;2023-03-13T08:28:27;97029.63;;;14.50;82.96
8894;BME280;4483;48.622;9.230;2023-03-13T08:30:54;97031.56;;;14.59;82.44
8894;BME280;4483;48.622;9.230;2023-03-13T08:33:20;97026.47;;;14.70;82.95
8894;BME280;4483;48.622;9.230;2023-03-13T08:35:47;97015.34;;;14.80;81.33
8894;BME280;4483;48.622;9.230;2023-03-13T08:38:14;97014.81;;;14.88;80.61
8894;BME280;4483;48.622;9.230;2023-03-13T08:40:40;97001.50;;;14.92;80.67
8894;BME280;4483;48.622;9.230;2023-03-13T08:43:08;97007.53;;;14.93;80.62
8894;BME280;4483;48.622;9.230;2023-03-13T08:45:35;97005.66;;;14.95;80.81
8894;BME280;4483;48.622;9.230;2023-03-13T08:48:01;97002.22;;;14.94;81.46
8894;BME280;4483;48.622;9.230;2023-03-13T08:50:28;97011.69;;;14.95;80.42
8894;BME280;4483;48.622;9.230;2023-03-13T08:52:55;97019.34;;;14.97;80.25
8894;BME280;4483;48.622;9.230;2023-03-13T08:55:21;97016.88;;;14.95;80.17
8894;BME280;4483;48.622;9.230;2023-03-13T08:57:48;97006.97;;;15.00;80.00
8894;BME280;4483;48.622;9.230;2023-03-13T09:00:18;97010.59;;;14.98;80.12
8894;BME280;4483;48.622;9.230;2023-03-13T09:02:44;97020.91;;;14.99;80.11
8894;BME280;4483;48.622;9.230;2023-03-13T09:05:11;97024.22;;;15.01;80.23
8894;BME280;4483;48.622;9.230;2023-03-13T09:07:38;97024.38;;;15.11;79.33
8894;BME280;4483;48.622;9.230;2023-03-13T09:10:06;97020.84;;;15.12;79.93
8894;BME280;4483;48.622;9.230;2023-03-13T09:12:33;97020.84;;;15.12;79.61
8894;BME280;4483;48.622;9.230;2023-03-13T09:14:59;97028.19;;;15.18;79.59
8894;BME280;4483;48.622;9.230;2023-03-13T09:17:27;97030.47;;;15.23;78.92
8894;BME280;4483;48.622;9.230;2023-03-13T09:19:54;97036.66;;;15.33;78.43
8894;BME280;4483;48.622;9.230;2023-03-13T09:22:20;97024.88;;;15.40;78.50
8894;BME280;4483;48.622;9.230;2023-03-13T09:24:47;97016.22;;;15.52;77.71
8894;BME280;4483;48.622;9.230;2023-03-13T09:27:14;97021.22;;;15.66;77.06
8894;BME280;4483;48.622;9.230;2023-03-13T09:29:40;97018.47;;;15.80;76.80
8894;BME280;4483;48.622;9.230;2023-03-13T09:32:09;97028.78;;;16.03;74.97
8894;BME280;4483;48.622;9.230;2023-03-13T09:34:37;97013.69;;;16.20;75.51
8894;BME280;4483;48.622;9.230;2023-03-13T09:37:04;97012.06;;;16.41;74.75
8894;BME280;4483;48.622;9.230;2023-03-13T09:39:30;97003.69;;;16.70;72.11
8894;BME280;4483;48.622;9.230;2023-03-13T09:42:02;97020.47;;;16.77;71.32
8894;BME280;4483;48.622;9.230;2023-03-13T09:44:37;97010.03;;;16.88;70.27
8894;BME280;4483;48.622;9.230;2023-03-13T09:47:10;97010.28;;;16.96;70.14
8894;BME280;4483;48.622;9.230;2023-03-13T09:49:44;97017.56;;;17.14;68.52
8894;BME280;4483;48.622;9.230;2023-03-13T09:52:17;97013.53;;;17.21;67.52
8894;BME280;4483;48.622;9.230;2023-03-13T09:54:48;97009.69;;;17.36;67.44
8894;BME280;4483;48.622;9.230;2023-03-13T09:57:23;97016.19;;;17.41;67.17
8894;BME280;4483;48.622;9.230;2023-03-13T09:59:55;97007.56;;;17.72;66.15
8894;BME280;4483;48.622;9.230;2023-03-13T10:02:29;97003.09;;;17.84;65.18
8894;BME280;4483;48.622;9.230;2023-03-13T10:05:04;96991.84;;;18.25;64.87
8894;BME280;4483;48.622;9.230;2023-03-13T10:07:31;96996.78;;;18.78;62.78
8894;BME280;4483;48.622;9.230;2023-03-13T10:09:59;96995.28;;;19.54;61.30
8894;BME280;4483;48.622;9.230;2023-03-13T10:12:27;96984.72;;;20.11;58.75
8894;BME280;4483;48.622;9.230;2023-03-13T10:15:06;96990.72;;;20.40;58.06
8894;BME280;4483;48.622;9.230;2023-03-13T10:17:42;96983.34;;;20.99;55.71
8894;BME280;4483;48.622;9.230;2023-03-13T10:20:16;96973.06;;;21.51;55.20
8894;BME280;4483;48.622;9.230;2023-03-13T10:22:49;96967.56;;;21.97;54.14
8894;BME280;4483;48.622;9.230;2023-03-13T10:25:26;96956.56;;;22.19;51.01
8894;BME280;4483;48.622;9.230;2023-03-13T10:27:54;96954.59;;;22.21;49.94
8894;BME280;4483;48.622;9.230;2023-03-13T10:30:23;96951.56;;;22.34;49.67
8894;BME280;4483;48.622;9.230;2023-03-13T10:32:53;96952.88;;;22.63;49.25
8894;BME280;4483;48.622;9.230;2023-03-13T10:35:23;96959.44;;;22.59;48.00
8894;BME280;4483;48.622;9.230;2023-03-13T10:38:00;96951.59;;;22.75;46.68
8894;BME280;4483;48.622;9.230;2023-03-13T10:40:28;96942.47;;;22.95;46.68
8894;BME280;4483;48.622;9.230;2023-03-13T10:43:01;96938.78;;;22.64;46.56
8894;BME280;4483;48.622;9.230;2023-03-13T10:45:32;96941.72;;;22.69;47.11
8894;BME280;4483;48.622;9.230;2023-03-13T10:48:01;96943.19;;;22.64;46.23
8894;BME280;4483;48.622;9.230;2023-03-13T10:50:32;96928.72;;;22.60;46.08
8894;BME280;4483;48.622;9.230;2023-03-13T10:53:18;96924.50;;;22.33;46.98
8894;BME280;4483;48.622;9.230;2023-03-13T10:55:46;96910.06;;;22.71;46.03
8894;BME280;4483;48.622;9.230;2023-03-13T10:58:18;96900.31;;;23.05;46.28
8894;BME280;4483;48.622;9.230;2023-03-13T11:00:46;96896.75;;;23.70;46.01
8894;BME280;4483;48.622;9.230;2023-03-13T11:03:16;96893.22;;;24.26;45.10
8894;BME280;4483;48.622;9.230;2023-03-13T11:05:53;96866.56;;;24.29;43.51
8894;BME280;4483;48.622;9.230;2023-03-13T11:08:22;96873.03;;;23.94;43.18
8894;BME280;4483;48.622;9.230;2023-03-13T11:10:57;96867.34;;;23.51;43.62
8894;BME280;4483;48.622;9.230;2023-03-13T11:13:35;96864.47;;;22.88;44.78
8894;BME280;4483;48.622;9.230;2023-03-13T11:16:20;96861.88;;;22.46;45.71
8894;BME280;4483;48.622;9.230;2023-03-13T11:19:07;96855.56;;;21.89;46.91
8894;BME280;4483;48.622;9.230;2023-03-13T11:21:43;96868.41;;;21.57;47.81
8894;BME280;4483;48.622;9.230;2023-03-13T11:24:18;96864.97;;;21.31;48.60
8894;BME280;4483;48.622;9.230;2023-03-13T11:26:51;96869.25;;;21.15;49.29
8894;BME280;4483;48.622;9.230;2023-03-13T11:29:27;96874.31;;;21.16;49.63
8894;BME280;4483;48.622;9.230;2023-03-13T11:32:02;96853.16;;;21.10;50.06
8894;BME280;4483;48.622;9.230;2023-03-13T11:34:33;96840.38;;;21.50;50.22
8894;BME280;4483;48.622;9.230;2023-03-13T11:37:09;96845.94;;;21.98;48.95
8894;BME280;4483;48.622;9.230;2023-03-13T11:39:56;96840.91;;;22.05;48.43
8894;BME280;4483;48.622;9.230;2023-03-13T11:45:47;96810.66;;;23.08;46.62
8894;BME280;4483;48.622;9.230;2023-03-13T11:48:24;96800.78;;;23.58;45.78
8894;BME280;4483;48.622;9.230;2023-03-13T11:51:02;96803.50;;;23.89;45.04
8894;BME280;4483;48.622;9.230;2023-03-13T11:53:53;96787.47;;;23.52;44.81
8894;BME280;4483;48.622;9.230;2023-03-13T11:56:27;96781.09;;;23.46;44.90
8894;BME280;4483;48.622;9.230;2023-03-13T11:59:18;96787.19;;;23.15;45.50
8894;BME280;4483;48.622;9.230;2023-03-13T12:01:50;96771.16;;;23.72;45.72
8894;BME280;4483;48.622;9.230;2023-03-13T12:04:21;96755.63;;;24.32;45.08
8894;BME280;4483;48.622;9.230;2023-03-13T12:06:53;96739.66;;;24.87;44.14
8894;BME280;4483;48.622;9.230;2023-03-13T12:09:26;96740.75;;;25.30;43.09
8894;BME280;4483;48.622;9.230;2023-03-13T12:11:57;96729.94;;;25.25;42.10
8894;BME280;4483;48.622;9.230;2023-03-13T12:14:31;96719.13;;;25.20;41.77
8894;BME280;4483;48.622;9.230;2023-03-13T12:17:02;96718.19;;;25.13;41.32
8894;BME280;4483;48.622;9.230;2023-03-13T12:19:33;96709.53;;;25.04;41.52
8894;BME280;4483;48.622;9.230;2023-03-13T12:22:11;96695.94;;;25.15;41.50
8894;BME280;4483;48.622;9.230;2023-03-13T12:24:45;96687.31;;;25.36;40.92
8894;BME280;4483;48.622;9.230;2023-03-13T12:27:18;96676.09;;;25.42;40.57
8894;BME280;4483;48.622;9.230;2023-03-13T12:29:50;96676.53;;;25.45;40.05
8894;BME280;4483;48.622;9.230;2023-03-13T12:32:26;96674.25;;;25.57;39.83
8894;BME280;4483;48.622;9.230;2023-03-13T12:35:03;96660.72;;;25.60;39.58
8894;BME280;4483;48.622;9.230;2023-03-13T12:37:38;96670.06;;;25.48;39.20
8894;BME280;4483;48.622;9.230;2023-03-13T12:40:13;96652.22;;;25.35;39.33
8894;BME280;4483;48.622;9.230;2023-03-13T12:42:46;96638.78;;;25.16;39.75
8894;BME280;4483;48.622;9.230;2023-03-13T12:45:16;96616.31;;;24.91;39.56
8894;BME280;4483;48.622;9.230;2023-03-13T12:48:08;96610.56;;;24.87;40.15
8894;BME280;4483;48.622;9.230;2023-03-13T12:50:51;96617.13;;;25.06;40.13
8894;BME280;4483;48.622;9.230;2023-03-13T12:53:35;96597.88;;;25.20;40.12
8894;BME280;4483;48.622;9.230;2023-03-13T12:56:17;96597.13;;;25.26;39.56
8894;BME280;4483;48.622;9.230;2023-03-13T12:58:49;96585.22;;;25.30;39.35
8894;BME280;4483;48.622;9.230;2023-03-13T13:01:27;96563.88;;;25.39;39.45
8894;BME280;4483;48.622;9.230;2023-03-13T13:03:57;96558.00;;;25.58;38.33
8894;BME280;4483;48.622;9.230;2023-03-13T13:06:25;96560.19;;;25.55;37.54
8894;BME280;4483;48.622;9.230;2023-03-13T13:09:08;96559.88;;;25.14;37.49
8894;BME280;4483;48.622;9.230;2023-03-13T13:11:50;96559.53;;;24.51;37.39
8894;BME280;4483;48.622;9.230;2023-03-13T13:17:54;96527.59;;;23.94;38.82
8894;BME280;4483;48.622;9.230;2023-03-13T13:20:44;96519.00;;;24.00;39.31
8894;BME280;4483;48.622;9.230;2023-03-13T13:23:34;96515.28;;;24.17;38.93
8894;BME280;4483;48.622;9.230;2023-03-13T13:32:45;96490.56;;;24.70;37.70
8894;BME280;4483;48.622;9.230;2023-03-13T13:35:21;96493.53;;;24.52;37.44
8894;BME280;4483;48.622;9.230;2023-03-13T13:37:49;96491.50;;;24.25;37.89
8894;BME280;4483;48.622;9.230;2023-03-13T13:40:25;96485.03;;;24.13;38.24
8894;BME280;4483;48.622;9.230;2023-03-13T13:42:54;96477.78;;;23.92;38.26
8894;BME280;4483;48.622;9.230;2023-03-13T13:45:34;96472.28;;;23.79;39.07
8894;BME280;4483;48.622;9.230;2023-03-13T13:51:23;96454.84;;;23.64;39.37